createdAt,value
2023-04-22T00:00:09.137Z,5.40
2023-04-22T00:02:38.799Z,5.40
2023-04-22T00:05:10.644Z,5.40
2023-04-22T00:07:37.919Z,5.40
2023-04-22T00:10:05.710Z,5.50
2023-04-22T00:12:32.636Z,5.50
2023-04-22T00:14:59.647Z,5.50
2023-04-22T00:17:26.648Z,5.60
2023-04-22T00:19:54.577Z,5.60
2023-04-22T00:22:21.560Z,5.60
2023-04-22T00:24:48.763Z,5.50
2023-04-22T00:27:15.673Z,5.50
2023-04-22T00:29:42.559Z,5.60
2023-04-22T00:32:09.537Z,5.60
2023-04-22T00:34:36.456Z,5.70
2023-04-22T00:37:03.525Z,5.60
2023-04-22T00:39:30.499Z,5.70
2023-04-22T00:41:57.699Z,5.70
2023-04-22T00:44:25.522Z,5.70
2023-04-22T00:46:52.923Z,5.70
2023-04-22T00:49:20.650Z,5.70
2023-04-22T00:51:47.565Z,5.70
2023-04-22T00:54:14.583Z,5.70
2023-04-22T00:56:41.780Z,5.70
2023-04-22T00:59:10.833Z,5.60
2023-04-22T01:01:38.117Z,5.60
2023-04-22T01:04:05.402Z,5.60
2023-04-22T01:06:33.204Z,5.50
2023-04-22T01:09:00.521Z,5.40
2023-04-22T01:11:27.545Z,5.40
2023-04-22T01:13:54.550Z,5.50
2023-04-22T01:16:22.891Z,5.50
2023-04-22T01:18:49.879Z,5.50
2023-04-22T01:21:17.099Z,5.60
2023-04-22T01:23:44.262Z,5.60
2023-04-22T01:26:11.830Z,5.60
2023-04-22T01:28:39.389Z,5.50
2023-04-22T01:31:06.369Z,5.50
2023-04-22T01:33:34.310Z,5.60
2023-04-22T01:36:01.401Z,5.60
2023-04-22T01:38:28.959Z,5.60
2023-04-22T01:40:56.129Z,5.60
2023-04-22T01:43:23.702Z,5.60
2023-04-22T01:45:50.703Z,5.70
2023-04-22T01:48:17.797Z,5.70
2023-04-22T01:50:45.672Z,5.70
2023-04-22T01:53:13.216Z,5.70
2023-04-22T01:55:40.316Z,5.70
2023-04-22T01:58:07.346Z,5.70
2023-04-22T02:00:34.495Z,5.70
2023-04-22T02:03:01.719Z,5.70
2023-04-22T02:05:28.887Z,5.70
2023-04-22T02:07:55.808Z,5.70
2023-04-22T02:10:22.786Z,5.60
2023-04-22T02:12:49.733Z,5.60
2023-04-22T02:15:16.723Z,5.60
2023-04-22T02:17:44.255Z,5.60
2023-04-22T02:20:12.116Z,5.60
2023-04-22T02:22:41.520Z,5.60
2023-04-22T02:25:10.928Z,5.70
2023-04-22T02:27:39.336Z,5.70
2023-04-22T02:30:07.644Z,5.70
2023-04-22T02:32:36.885Z,5.70
2023-04-22T02:35:05.284Z,5.70
2023-04-22T02:37:32.513Z,5.70
2023-04-22T02:39:59.461Z,5.70
2023-04-22T02:42:26.417Z,5.70
2023-04-22T02:44:53.523Z,5.70
2023-04-22T02:47:21.756Z,5.70
2023-04-22T02:49:48.818Z,5.70
2023-04-22T02:52:15.745Z,5.80
2023-04-22T02:54:42.806Z,5.80
2023-04-22T02:57:09.816Z,5.80
2023-04-22T02:59:37.672Z,5.80
2023-04-22T03:02:06.925Z,5.80
2023-04-22T03:04:34.256Z,5.80
2023-04-22T03:07:01.377Z,5.80
2023-04-22T03:09:28.431Z,5.80
2023-04-22T03:11:56.007Z,5.80
2023-04-22T03:14:23.067Z,5.80
2023-04-22T03:16:50.308Z,5.80
2023-04-22T03:19:17.263Z,5.80
2023-04-22T03:21:44.227Z,5.80
2023-04-22T03:24:11.224Z,5.80
2023-04-22T03:26:38.263Z,5.80
2023-04-22T03:29:05.425Z,5.80
2023-04-22T03:31:32.395Z,5.80
2023-04-22T03:33:59.678Z,5.90
2023-04-22T03:36:27.518Z,5.90
2023-04-22T03:38:54.526Z,5.90
2023-04-22T03:41:21.517Z,5.90
2023-04-22T03:43:48.548Z,5.90
2023-04-22T03:46:16.983Z,5.90
2023-04-22T03:48:44.000Z,5.90
2023-04-22T03:51:11.032Z,5.90
2023-04-22T03:53:38.188Z,5.90
2023-04-22T03:56:05.656Z,5.90
2023-04-22T03:58:33.135Z,5.90
2023-04-22T04:01:00.182Z,5.80
2023-04-22T04:03:30.181Z,5.80
2023-04-22T04:05:58.253Z,5.80
2023-04-22T04:08:25.715Z,5.80
2023-04-22T04:10:52.743Z,5.90
2023-04-22T04:13:19.671Z,5.90
2023-04-22T04:15:47.288Z,5.90
2023-04-22T04:18:15.000Z,5.90
2023-04-22T04:20:42.019Z,5.90
2023-04-22T04:23:10.039Z,6.00
2023-04-22T04:25:38.929Z,6.00
2023-04-22T04:28:12.125Z,6.00
2023-04-22T04:30:41.580Z,6.00
2023-04-22T04:33:08.809Z,6.00
2023-04-22T04:35:39.617Z,6.00
2023-04-22T04:38:06.701Z,6.00
2023-04-22T04:40:35.040Z,6.00
2023-04-22T04:43:04.318Z,6.00
2023-04-22T04:45:31.356Z,6.10
2023-04-22T04:47:58.481Z,6.10
2023-04-22T04:50:27.850Z,6.10
2023-04-22T04:52:55.290Z,6.10
2023-04-22T04:55:22.317Z,6.10
2023-04-22T04:57:49.278Z,6.20
2023-04-22T05:00:16.513Z,6.20
2023-04-22T05:02:43.753Z,6.20
2023-04-22T05:05:12.032Z,6.20
2023-04-22T05:07:41.854Z,6.20
2023-04-22T05:10:10.745Z,6.20
2023-04-22T05:12:37.682Z,6.30
2023-04-22T05:15:05.535Z,6.30
2023-04-22T05:17:32.508Z,6.20
2023-04-22T05:19:59.476Z,6.10
2023-04-22T05:22:26.482Z,6.20
2023-04-22T05:24:53.415Z,6.20
2023-04-22T05:27:20.603Z,6.30
2023-04-22T05:29:47.611Z,6.40
2023-04-22T05:32:14.619Z,6.40
2023-04-22T05:34:43.826Z,6.50
2023-04-22T05:37:11.038Z,6.60
2023-04-22T05:39:38.125Z,6.70
2023-04-22T05:42:05.434Z,6.80
2023-04-22T05:44:32.399Z,6.80
2023-04-22T05:46:59.416Z,6.90
2023-04-22T05:49:27.030Z,7.00
2023-04-22T05:51:53.935Z,7.00
2023-04-22T05:54:20.873Z,7.10
2023-04-22T05:56:47.808Z,7.10
2023-04-22T05:59:14.833Z,7.20
2023-04-22T06:01:42.393Z,7.30
2023-04-22T06:04:12.219Z,7.40
2023-04-22T06:06:39.812Z,7.40
2023-04-22T06:09:07.540Z,7.50
2023-04-22T06:11:34.535Z,7.60
2023-04-22T06:14:01.541Z,7.70
2023-04-22T06:16:28.621Z,7.70
2023-04-22T06:18:55.562Z,7.70
2023-04-22T06:21:25.499Z,7.80
2023-04-22T06:23:52.441Z,7.90
2023-04-22T06:26:19.626Z,7.90
2023-04-22T06:28:46.558Z,8.00
2023-04-22T06:31:13.510Z,8.20
2023-04-22T06:33:40.463Z,8.30
2023-04-22T06:36:07.773Z,8.30
2023-04-22T06:38:34.741Z,8.40
2023-04-22T06:41:01.810Z,8.50
2023-04-22T06:43:28.716Z,8.60
2023-04-22T06:45:55.853Z,8.60
2023-04-22T06:48:22.857Z,8.60
2023-04-22T06:50:49.791Z,8.60
2023-04-22T06:53:16.809Z,8.60
2023-04-22T06:55:43.821Z,8.60
2023-04-22T06:58:10.731Z,8.70
2023-04-22T07:00:37.652Z,8.80
2023-04-22T07:03:04.632Z,8.90
2023-04-22T07:05:32.160Z,8.90
2023-04-22T07:07:59.061Z,9.00
2023-04-22T07:10:26.151Z,9.10
2023-04-22T07:12:53.199Z,9.10
2023-04-22T07:15:20.296Z,9.10
2023-04-22T07:17:47.409Z,9.20
2023-04-22T07:20:14.353Z,9.30
2023-04-22T07:22:41.276Z,9.30
2023-04-22T07:25:08.698Z,9.40
2023-04-22T07:27:38.955Z,9.50
2023-04-22T07:30:11.696Z,9.60
2023-04-22T07:32:38.692Z,9.60
2023-04-22T07:35:06.422Z,9.70
2023-04-22T07:37:33.356Z,9.80
2023-04-22T07:40:00.253Z,9.90
2023-04-22T07:42:27.294Z,10.00
2023-04-22T07:44:54.264Z,10.00
2023-04-22T07:47:21.410Z,10.10
2023-04-22T07:49:48.483Z,10.20
2023-04-22T07:52:15.406Z,10.20
2023-04-22T07:54:42.490Z,10.30
2023-04-22T07:57:09.390Z,10.30
2023-04-22T07:59:36.301Z,10.50
2023-04-22T08:02:03.305Z,10.80
2023-04-22T08:04:30.415Z,11.10
2023-04-22T08:06:57.518Z,11.50
2023-04-22T08:09:24.585Z,11.90
2023-04-22T08:11:53.342Z,12.00
2023-04-22T08:14:20.258Z,12.10
2023-04-22T08:16:47.152Z,12.10
2023-04-22T08:19:14.080Z,12.10
2023-04-22T08:21:41.000Z,12.20
2023-04-22T08:24:08.017Z,12.20
2023-04-22T08:26:36.336Z,12.00
2023-04-22T08:29:04.540Z,11.80
2023-04-22T08:31:31.758Z,11.60
2023-04-22T08:33:58.710Z,11.30
2023-04-22T08:36:27.692Z,11.20
2023-04-22T08:38:54.916Z,11.20
2023-04-22T08:41:24.552Z,11.20
2023-04-22T08:43:53.855Z,11.20
2023-04-22T08:46:21.915Z,11.10
2023-04-22T08:48:50.542Z,11.00
2023-04-22T08:51:18.430Z,10.90
2023-04-22T08:53:45.732Z,10.80
2023-04-22T08:56:16.439Z,10.70
2023-04-22T08:58:44.025Z,10.70
2023-04-22T09:01:11.526Z,10.60
2023-04-22T09:03:40.972Z,10.60
2023-04-22T09:06:10.764Z,10.70
2023-04-22T09:08:38.692Z,10.70
2023-04-22T09:11:05.703Z,10.70
2023-04-22T09:13:34.631Z,10.70
2023-04-22T09:16:01.825Z,10.60
2023-04-22T09:18:28.841Z,10.60
2023-04-22T09:20:57.285Z,10.50
2023-04-22T09:23:24.947Z,10.40
2023-04-22T09:25:51.981Z,10.30
2023-04-22T09:28:19.751Z,10.20
2023-04-22T09:30:47.494Z,10.20
2023-04-22T09:33:15.688Z,10.20
2023-04-22T09:35:44.045Z,10.20
2023-04-22T09:38:12.411Z,10.30
2023-04-22T09:40:44.545Z,10.40
2023-04-22T09:43:11.738Z,10.50
2023-04-22T09:45:42.051Z,10.50
2023-04-22T09:48:15.454Z,10.60
2023-04-22T09:50:51.898Z,10.60
2023-04-22T09:53:21.594Z,10.70
2023-04-22T09:55:54.417Z,10.70
2023-04-22T09:58:23.826Z,10.90
2023-04-22T10:00:54.986Z,10.90
2023-04-22T10:03:22.064Z,11.00
2023-04-22T10:05:49.188Z,11.00
2023-04-22T10:08:17.601Z,11.00
2023-04-22T10:10:45.884Z,10.90
2023-04-22T10:13:12.926Z,10.90
2023-04-22T10:15:53.304Z,10.90
2023-04-22T10:18:26.985Z,10.80
2023-04-22T10:20:56.416Z,10.80
2023-04-22T10:23:25.167Z,10.80
2023-04-22T10:25:56.596Z,11.00
2023-04-22T10:28:28.593Z,11.10
2023-04-22T10:30:55.654Z,11.10
2023-04-22T10:33:27.713Z,10.90
2023-04-22T10:36:17.985Z,10.80
2023-04-22T10:38:51.042Z,10.70
2023-04-22T10:41:24.218Z,10.60
2023-04-22T10:44:00.402Z,10.60
2023-04-22T10:46:34.774Z,10.50
2023-04-22T10:49:20.588Z,10.50
2023-04-22T10:51:52.432Z,10.50
2023-04-22T10:54:31.577Z,10.60
2023-04-22T10:57:15.459Z,10.70
2023-04-22T10:59:52.058Z,10.60
2023-04-22T11:02:20.921Z,10.70
2023-04-22T11:04:48.818Z,10.80
2023-04-22T11:07:30.160Z,10.80
2023-04-22T11:10:07.425Z,10.80
2023-04-22T11:12:38.408Z,10.90
2023-04-22T11:15:15.819Z,10.80
2023-04-22T11:17:46.270Z,10.70
2023-04-22T11:20:17.987Z,10.70
2023-04-22T11:22:52.560Z,10.60
2023-04-22T11:25:20.531Z,10.70
2023-04-22T11:27:48.374Z,10.90
2023-04-22T11:30:27.085Z,11.10
2023-04-22T11:32:59.995Z,11.30
2023-04-22T11:35:32.193Z,11.30
2023-04-22T11:38:08.746Z,11.40
2023-04-22T11:40:45.120Z,11.40
2023-04-22T11:43:13.669Z,11.50
2023-04-22T11:45:41.250Z,11.50
2023-04-22T11:48:11.903Z,11.50
2023-04-22T11:50:42.415Z,11.50
2023-04-22T11:53:16.417Z,11.60
2023-04-22T11:55:45.696Z,11.60
2023-04-22T11:58:16.714Z,11.60
2023-04-22T12:00:50.351Z,11.60
2023-04-22T12:03:25.046Z,11.70
2023-04-22T12:05:54.317Z,11.60
2023-04-22T12:08:30.215Z,11.70
2023-04-22T12:11:01.273Z,11.60
2023-04-22T12:13:41.584Z,11.60
2023-04-22T12:16:13.429Z,11.60
2023-04-22T12:18:48.108Z,11.70
2023-04-22T12:21:18.766Z,11.60
2023-04-22T12:23:47.713Z,11.50
2023-04-22T12:26:16.455Z,11.40
2023-04-22T12:28:45.231Z,11.40
2023-04-22T12:31:14.153Z,11.40
2023-04-22T12:33:41.939Z,11.40
2023-04-22T12:36:09.514Z,11.40
2023-04-22T12:38:37.155Z,11.50
2023-04-22T12:41:06.403Z,11.60
2023-04-22T12:43:36.739Z,11.60
2023-04-22T12:46:08.169Z,11.60
2023-04-22T12:48:38.915Z,11.50
2023-04-22T12:51:09.254Z,11.60
2023-04-22T12:53:36.225Z,11.50
2023-04-22T12:56:03.254Z,11.60
2023-04-22T12:58:30.281Z,11.70
2023-04-22T13:00:57.214Z,11.80
2023-04-22T13:03:24.406Z,11.80
2023-04-22T13:05:52.394Z,11.60
2023-04-22T13:08:19.515Z,11.60
2023-04-22T13:10:46.448Z,11.50
2023-04-22T13:13:18.248Z,11.50
2023-04-22T13:15:47.841Z,11.50
2023-04-22T13:18:16.848Z,11.40
2023-04-22T13:20:44.163Z,11.20
2023-04-22T13:23:11.390Z,11.10
2023-04-22T13:25:38.352Z,11.10
2023-04-22T13:28:05.837Z,11.00
2023-04-22T13:30:33.467Z,11.00
2023-04-22T13:33:00.501Z,11.00
2023-04-22T13:35:27.607Z,11.00
2023-04-22T13:37:54.564Z,11.00
2023-04-22T13:40:21.615Z,10.90
2023-04-22T13:42:48.711Z,10.80
2023-04-22T13:45:19.101Z,10.80
2023-04-22T13:47:46.187Z,10.80
2023-04-22T13:50:13.145Z,10.80
2023-04-22T13:52:40.106Z,10.80
2023-04-22T13:55:07.943Z,10.80
2023-04-22T13:57:34.923Z,10.80
2023-04-22T14:00:01.913Z,10.90
2023-04-22T14:02:28.921Z,10.90
2023-04-22T14:04:55.912Z,11.00
2023-04-22T14:07:22.842Z,11.10
2023-04-22T14:09:49.793Z,11.10
2023-04-22T14:12:17.159Z,11.10
2023-04-22T14:14:44.144Z,11.20
2023-04-22T14:17:11.439Z,11.30
2023-04-22T14:19:39.758Z,11.40
2023-04-22T14:22:06.944Z,11.60
2023-04-22T14:24:34.042Z,11.80
2023-04-22T14:27:04.044Z,12.10
2023-04-22T14:29:31.901Z,12.50
2023-04-22T14:31:59.493Z,12.70
2023-04-22T14:34:27.326Z,12.90
2023-04-22T14:36:57.203Z,12.90
2023-04-22T14:39:24.165Z,13.00
2023-04-22T14:41:51.608Z,13.30
2023-04-22T14:44:18.675Z,13.70
2023-04-22T14:46:45.730Z,14.00
2023-04-22T14:49:12.672Z,13.90
2023-04-22T14:51:39.863Z,14.00
2023-04-22T14:54:07.005Z,14.10
2023-04-22T14:56:33.970Z,13.80
2023-04-22T14:59:01.107Z,13.70
2023-04-22T15:01:28.078Z,13.40
2023-04-22T15:03:55.154Z,13.10
2023-04-22T15:06:23.137Z,13.20
2023-04-22T15:08:51.776Z,13.30
2023-04-22T15:11:18.976Z,13.40
2023-04-22T15:13:46.112Z,13.40
2023-04-22T15:16:13.620Z,13.00
2023-04-22T15:18:40.672Z,12.80
2023-04-22T15:21:10.226Z,12.80
2023-04-22T15:23:37.268Z,12.70
2023-04-22T15:26:04.334Z,12.80
2023-04-22T15:28:31.415Z,12.90
2023-04-22T15:31:01.366Z,13.00
2023-04-22T15:33:28.274Z,13.20
2023-04-22T15:35:57.434Z,13.30
2023-04-22T15:38:24.745Z,13.30
2023-04-22T15:40:51.869Z,13.30
2023-04-22T15:43:18.759Z,13.20
2023-04-22T15:45:45.721Z,13.10
2023-04-22T15:48:12.653Z,13.10
2023-04-22T15:50:40.803Z,13.20
2023-04-22T15:53:07.781Z,13.20
2023-04-22T15:55:34.689Z,13.20
2023-04-22T15:58:02.853Z,13.20
2023-04-22T16:00:29.786Z,13.20
2023-04-22T16:02:56.972Z,13.30
2023-04-22T16:05:25.069Z,13.40
2023-04-22T16:07:53.626Z,13.30
2023-04-22T16:10:21.346Z,13.20
2023-04-22T16:12:49.017Z,13.10
2023-04-22T16:15:16.707Z,13.00
2023-04-22T16:17:44.368Z,13.10
2023-04-22T16:20:13.680Z,13.10
2023-04-22T16:22:40.607Z,13.20
2023-04-22T16:25:08.996Z,13.30
2023-04-22T16:27:36.069Z,13.20
2023-04-22T16:30:03.289Z,13.20
2023-04-22T16:32:30.355Z,13.10
2023-04-22T16:34:57.331Z,13.10
2023-04-22T16:37:25.766Z,13.10
2023-04-22T16:39:53.009Z,13.10
2023-04-22T16:42:19.932Z,13.10
2023-04-22T16:44:46.862Z,13.00
2023-04-22T16:47:13.787Z,13.00
2023-04-22T16:49:41.085Z,13.00
2023-04-22T16:52:08.232Z,13.00
2023-04-22T16:54:35.150Z,13.00
2023-04-22T16:57:02.843Z,13.00
2023-04-22T16:59:29.954Z,13.00
2023-04-22T17:01:57.360Z,13.00
2023-04-22T17:04:24.530Z,13.00
2023-04-22T17:06:51.605Z,13.10
2023-04-22T17:09:18.771Z,13.00
2023-04-22T17:11:45.725Z,13.00
2023-04-22T17:14:12.734Z,13.00
2023-04-22T17:16:39.868Z,13.00
2023-04-22T17:19:07.716Z,13.00
2023-04-22T17:21:34.928Z,13.00
2023-04-22T17:24:03.923Z,13.00
2023-04-22T17:26:30.931Z,13.00
2023-04-22T17:28:57.872Z,13.00
2023-04-22T17:31:25.160Z,12.90
2023-04-22T17:33:52.168Z,12.90
2023-04-22T17:36:20.175Z,12.80
2023-04-22T17:38:49.714Z,12.80
2023-04-22T17:41:18.498Z,12.80
2023-04-22T17:43:45.500Z,12.80
2023-04-22T17:46:12.462Z,12.70
2023-04-22T17:48:40.121Z,12.80
2023-04-22T17:51:07.229Z,12.80
2023-04-22T17:53:34.621Z,12.80
2023-04-22T17:56:01.659Z,12.90
2023-04-22T17:58:28.633Z,12.90
2023-04-22T18:00:56.319Z,12.90
2023-04-22T18:03:23.446Z,12.80
2023-04-22T18:05:50.591Z,12.70
2023-04-22T18:08:17.962Z,12.70
2023-04-22T18:10:48.476Z,12.70
2023-04-22T18:13:15.836Z,12.60
2023-04-22T18:15:43.053Z,12.50
2023-04-22T18:18:10.163Z,12.40
2023-04-22T18:20:37.263Z,12.40
2023-04-22T18:23:04.277Z,12.30
2023-04-22T18:25:31.329Z,12.20
2023-04-22T18:27:58.380Z,12.10
2023-04-22T18:30:25.562Z,12.10
2023-04-22T18:32:52.856Z,12.00
2023-04-22T18:35:20.283Z,11.90
2023-04-22T18:37:47.833Z,11.90
2023-04-22T18:40:14.835Z,11.80
2023-04-22T18:42:44.842Z,11.70
2023-04-22T18:45:12.506Z,11.60
2023-04-22T18:47:39.615Z,11.50
2023-04-22T18:50:07.672Z,11.40
2023-04-22T18:52:34.775Z,11.30
2023-04-22T18:55:01.850Z,11.20
2023-04-22T18:57:30.641Z,11.10
2023-04-22T18:59:57.875Z,11.10
2023-04-22T19:02:24.857Z,11.00
2023-04-22T19:04:54.120Z,10.90
2023-04-22T19:07:21.199Z,10.80
2023-04-22T19:09:48.153Z,10.80
2023-04-22T19:12:16.597Z,10.80
2023-04-22T19:14:43.870Z,10.70
2023-04-22T19:17:11.114Z,10.70
2023-04-22T19:19:38.198Z,10.70
2023-04-22T19:22:05.497Z,10.70
2023-04-22T19:24:35.068Z,10.80
2023-04-22T19:27:02.882Z,10.80
2023-04-22T19:29:30.133Z,10.90
2023-04-22T19:31:57.368Z,10.90
2023-04-22T19:34:24.456Z,10.90
2023-04-22T19:36:51.434Z,11.00
2023-04-22T19:39:18.352Z,10.90
2023-04-22T19:41:45.287Z,10.90
2023-04-22T19:44:12.522Z,10.90
2023-04-22T19:46:39.555Z,10.90
2023-04-22T19:49:07.170Z,10.80
2023-04-22T19:51:35.091Z,10.70
2023-04-22T19:54:03.067Z,10.80
2023-04-22T19:56:30.196Z,10.70
2023-04-22T19:58:57.603Z,10.60
2023-04-22T20:01:24.990Z,10.60
2023-04-22T20:03:52.996Z,10.50
2023-04-22T20:06:22.866Z,10.50
2023-04-22T20:08:53.612Z,10.50
2023-04-22T20:11:26.379Z,10.60
2023-04-22T20:13:53.965Z,10.60
2023-04-22T20:16:21.876Z,10.60
2023-04-22T20:18:50.624Z,10.70
2023-04-22T20:21:19.440Z,10.70
2023-04-22T20:23:47.959Z,10.60
2023-04-22T20:26:19.990Z,10.60
2023-04-22T20:28:49.843Z,10.50
2023-04-22T20:31:22.452Z,10.50
2023-04-22T20:33:52.568Z,10.40
2023-04-22T20:36:24.086Z,10.50
2023-04-22T20:38:54.873Z,10.50
2023-04-22T20:41:24.623Z,10.50
2023-04-22T20:43:52.479Z,10.50
2023-04-22T20:46:22.715Z,10.50
2023-04-22T20:48:49.949Z,10.50
2023-04-22T20:51:17.025Z,10.50
2023-04-22T20:53:45.312Z,10.50
2023-04-22T20:56:12.455Z,10.50
2023-04-22T20:58:39.376Z,10.50
2023-04-22T21:01:09.019Z,10.40
2023-04-22T21:03:39.383Z,10.40
2023-04-22T21:06:08.748Z,10.40
2023-04-22T21:08:36.837Z,10.30
2023-04-22T21:11:04.120Z,10.30
2023-04-22T21:13:31.356Z,10.20
2023-04-22T21:16:02.914Z,10.10
2023-04-22T21:18:33.163Z,10.10
2023-04-22T21:21:03.565Z,10.10
2023-04-22T21:23:31.406Z,10.10
2023-04-22T21:26:01.820Z,10.00
2023-04-22T21:28:31.651Z,9.90
2023-04-22T21:30:59.058Z,9.90
2023-04-22T21:33:26.193Z,9.90
2023-04-22T21:35:53.289Z,9.80
2023-04-22T21:38:20.270Z,9.80
2023-04-22T21:40:47.798Z,9.70
2023-04-22T21:43:14.753Z,9.70
2023-04-22T21:45:42.216Z,9.60
2023-04-22T21:48:09.169Z,9.60
2023-04-22T21:50:36.578Z,9.60
2023-04-22T21:53:03.679Z,9.50
2023-04-22T21:55:30.655Z,9.40
2023-04-22T21:57:58.167Z,9.40
2023-04-22T22:00:25.269Z,9.40
2023-04-22T22:02:53.319Z,9.30
2023-04-22T22:05:20.780Z,9.20
2023-04-22T22:07:48.893Z,9.20
2023-04-22T22:10:22.483Z,9.20
2023-04-22T22:12:50.113Z,9.10
2023-04-22T22:15:21.074Z,9.10
2023-04-22T22:17:48.096Z,9.00
2023-04-22T22:20:18.187Z,8.90
2023-04-22T22:22:45.659Z,8.80
2023-04-22T22:25:15.617Z,8.90
2023-04-22T22:27:49.657Z,9.00
2023-04-22T22:30:21.601Z,9.20
2023-04-22T22:32:49.608Z,9.30
2023-04-22T22:35:16.665Z,9.40
2023-04-22T22:37:44.667Z,9.60
2023-04-22T22:40:12.328Z,9.70
2023-04-22T22:42:39.242Z,9.80
2023-04-22T22:45:06.941Z,9.90
2023-04-22T22:47:35.343Z,10.00
2023-04-22T22:50:02.492Z,10.10
2023-04-22T22:52:29.520Z,10.20
2023-04-22T22:54:56.425Z,10.30
2023-04-22T22:57:23.514Z,10.30
2023-04-22T22:59:51.759Z,10.30
2023-04-22T23:02:18.850Z,10.40
2023-04-22T23:04:46.112Z,10.40
2023-04-22T23:07:14.682Z,10.40
2023-04-22T23:09:41.728Z,10.50
2023-04-22T23:12:08.627Z,10.50
2023-04-22T23:14:36.601Z,10.40
2023-04-22T23:17:03.714Z,10.40
2023-04-22T23:19:31.886Z,10.40
2023-04-22T23:21:59.164Z,10.40
2023-04-22T23:24:26.636Z,10.40
2023-04-22T23:26:53.866Z,10.30
2023-04-22T23:29:21.409Z,10.30
2023-04-22T23:31:51.655Z,10.40
2023-04-22T23:34:23.043Z,10.40
2023-04-22T23:36:50.692Z,10.40
2023-04-22T23:39:17.783Z,10.50
2023-04-22T23:41:44.997Z,10.50
2023-04-22T23:44:11.970Z,10.60
2023-04-22T23:46:39.347Z,10.70
2023-04-22T23:49:07.184Z,10.70
2023-04-22T23:51:35.113Z,10.70
2023-04-22T23:54:02.034Z,10.70
2023-04-22T23:56:29.531Z,10.70
2023-04-22T23:58:57.174Z,10.70
